Time;durP1;ratioP1;P1;durP2;ratioP2;P2;SDS_P1;SDS_P2;PMS_P1;PMS_P2;Temp;Humidity;BMP_temperature;BMP_pressure;BME280_temperature;BME280_humidity;BME280_pressure;Samples;Min_cycle;Max_cycle;Signal;HPM_P1;HPM_P2
2022/01/12 00:00:39;;;;;;;4.78;2.45;;;4.00;99.90;;;;;;10341389;28;20452;-62
2022/01/12 00:05:42;;;;;;;5.82;2.85;;;4.00;99.90;;;;;;10337082;28;20489;-61
2022/01/12 00:10:44;;;;;;;5.38;2.33;;;4.00;99.90;;;;;;10347592;28;20111;-61
2022/01/12 00:15:46;;;;;;;5.35;2.47;;;3.90;99.90;;;;;;10340813;28;20140;-61
2022/01/12 00:20:49;;;;;;;6.07;2.70;;;3.90;99.90;;;;;;10338282;28;20474;-61
2022/01/12 00:36:20;;;;;;;4.78;1.92;;;3.80;99.90;;;;;;10339572;28;20058;-61
2022/01/12 00:41:22;;;;;;;5.35;1.95;;;3.80;99.90;;;;;;10343254;28;20100;-61
2022/01/12 00:46:29;;;;;;;5.10;2.20;;;3.70;99.90;;;;;;10341496;28;20837;-61
2022/01/12 00:51:33;;;;;;;6.50;2.40;;;3.60;99.90;;;;;;10346777;28;20716;-62
2022/01/12 00:56:35;;;;;;;8.57;3.28;;;3.50;99.90;;;;;;10347686;28;20296;-61
2022/01/12 01:01:36;;;;;;;7.43;2.65;;;3.50;99.90;;;;;;10355258;28;20351;-62
2022/01/12 01:06:38;;;;;;;9.38;2.38;;;3.40;99.90;;;;;;10344877;28;20121;-61
2022/01/12 01:11:40;;;;;;;4.05;1.90;;;3.30;99.90;;;;;;10346904;28;20073;-62
2022/01/12 01:17:04;;;;;;;5.38;1.95;;;3.20;99.90;;;;;;10351454;28;20050;-61
2022/01/12 01:27:26;;;;;;;4.97;1.83;;;2.90;99.90;;;;;;10354458;28;20115;-62
2022/01/12 01:32:28;;;;;;;6.03;2.30;;;2.70;99.90;;;;;;10343730;28;20053;-61
2022/01/12 01:37:30;;;;;;;6.07;2.40;;;2.60;99.90;;;;;;10346399;28;20057;-62
2022/01/12 01:42:43;;;;;;;6.50;2.85;;;2.40;99.90;;;;;;10342191;28;20674;-61
2022/01/12 01:53:20;;;;;;;5.20;2.03;;;2.10;99.90;;;;;;10346379;28;20081;-61
2022/01/12 01:58:22;;;;;;;5.97;2.28;;;2.00;99.90;;;;;;10348470;28;20069;-61
2022/01/12 02:03:27;;;;;;;4.65;2.05;;;1.80;99.90;;;;;;10348256;28;20130;-62
2022/01/12 02:08:29;;;;;;;6.70;2.45;;;1.70;99.90;;;;;;10345191;28;20143;-62
2022/01/12 02:13:31;;;;;;;6.47;2.53;;;1.50;99.90;;;;;;10346114;28;20046;-62
2022/01/12 02:19:03;;;;;;;5.90;2.92;;;1.40;99.90;;;;;;10341291;28;20427;-61
2022/01/12 02:40:16;;;;;;;5.72;2.13;;;1.20;99.90;;;;;;10348252;28;20070;-61
2022/01/12 02:50:47;;;;;;;6.45;1.70;;;1.10;99.90;;;;;;10343399;28;20073;-62
2022/01/12 02:55:49;;;;;;;3.42;1.42;;;1.00;99.90;;;;;;10344692;28;20124;-64
2022/01/12 03:02:14;;;;;;;4.50;1.77;;;0.90;99.90;;;;;;10345036;28;20088;-62
2022/01/12 03:06:25;;;;;;;4.43;1.85;;;0.80;99.90;;;;;;10331575;28;20045;-61
2022/01/12 03:11:28;;;;;;;6.35;2.15;;;0.70;99.90;;;;;;10341125;28;20069;-62
2022/01/12 03:16:31;;;;;;;6.78;2.03;;;0.70;99.90;;;;;;10344543;28;20072;-61
2022/01/12 03:21:34;;;;;;;5.47;2.30;;;0.60;99.90;;;;;;10345384;28;20120;-62
2022/01/12 03:26:36;;;;;;;4.40;1.67;;;0.50;99.90;;;;;;10345467;28;20493;-62
2022/01/12 03:31:37;;;;;;;5.57;1.92;;;0.50;99.90;;;;;;10343410;28;20082;-61
2022/01/12 03:36:42;;;;;;;6.53;1.95;;;0.40;99.90;;;;;;10340528;28;20129;-61
2022/01/12 03:41:44;;;;;;;6.20;1.90;;;0.40;99.90;;;;;;10342285;28;20503;-61
2022/01/12 03:46:52;;;;;;;5.35;1.65;;;0.30;99.90;;;;;;10342866;28;20049;-61
2022/01/12 03:51:53;;;;;;;6.15;2.40;;;0.30;99.90;;;;;;10339239;28;20042;-60
2022/01/12 03:56:58;;;;;;;4.68;1.83;;;0.30;99.90;;;;;;10343726;28;20053;-61
2022/01/12 04:02:00;;;;;;;5.72;2.45;;;0.30;99.90;;;;;;10338108;28;20046;-61
2022/01/12 04:12:25;;;;;;;5.93;2.13;;;0.30;99.90;;;;;;10337223;28;20077;-61
2022/01/12 04:17:26;;;;;;;6.32;1.85;;;0.40;99.90;;;;;;10340754;28;20172;-61
2022/01/12 04:27:48;;;;;;;5.30;1.90;;;0.50;99.90;;;;;;10336826;28;20045;-61
2022/01/12 04:32:50;;;;;;;5.43;1.60;;;0.50;99.90;;;;;;10342646;28;20451;-60
2022/01/12 04:37:52;;;;;;;3.60;1.13;;;0.50;99.90;;;;;;10336155;28;20045;-61
2022/01/12 04:42:55;;;;;;;3.72;1.75;;;0.50;99.90;;;;;;10331582;28;20069;-61
2022/01/12 04:52:58;;;;;;;4.28;1.60;;;0.60;99.90;;;;;;10339137;28;20377;-62
2022/01/12 04:58:00;;;;;;;5.05;1.75;;;0.70;99.90;;;;;;10343892;28;20077;-62
2022/01/12 05:13:47;;;;;;;5.55;1.65;;;1.00;99.90;;;;;;10331353;28;20074;-62
2022/01/12 05:18:50;;;;;;;2.90;1.52;;;1.00;99.90;;;;;;10338700;28;20092;-62
2022/01/12 05:23:53;;;;;;;5.60;1.77;;;1.00;99.90;;;;;;10347687;28;20118;-62
2022/01/12 05:28:54;;;;;;;3.10;1.60;;;1.00;99.90;;;;;;10336968;28;20131;-63
2022/01/12 05:33:59;;;;;;;2.85;1.10;;;1.00;99.90;;;;;;10343017;28;20111;-62
2022/01/12 05:39:02;;;;;;;5.25;1.58;;;1.10;99.90;;;;;;10348073;28;20046;-62
2022/01/12 05:44:06;;;;;;;6.65;2.13;;;1.10;99.90;;;;;;10350282;28;20074;-62
2022/01/12 05:54:28;;;;;;;5.88;2.40;;;1.10;99.90;;;;;;10344659;28;20053;-62
2022/01/12 05:59:30;;;;;;;5.47;1.85;;;1.10;99.90;;;;;;10346569;28;20042;-62
2022/01/12 06:04:35;;;;;;;4.03;1.85;;;1.10;99.90;;;;;;10343075;28;20050;-61
2022/01/12 06:09:36;;;;;;;7.65;1.90;;;1.20;99.90;;;;;;10348613;28;20074;-62
2022/01/12 06:14:38;;;;;;;4.13;1.83;;;1.20;99.90;;;;;;10346105;28;20049;-61
2022/01/12 06:19:40;;;;;;;4.80;2.53;;;1.20;99.90;;;;;;10343915;28;20108;-61
2022/01/12 06:24:42;;;;;;;7.30;1.88;;;1.30;99.90;;;;;;10346243;28;20129;-60
2022/01/12 06:30:01;;;;;;;4.47;2.30;;;1.30;99.90;;;;;;10350581;28;20042;-61
2022/01/12 06:35:03;;;;;;;4.72;2.22;;;1.40;99.90;;;;;;10336932;28;20143;-60
2022/01/12 06:40:05;;;;;;;7.47;3.30;;;1.30;99.90;;;;;;10344452;28;20515;-60
2022/01/12 06:45:07;;;;;;;35.40;14.95;;;1.40;99.90;;;;;;10343126;28;20054;-61
2022/01/12 06:50:09;;;;;;;10.35;4.68;;;1.40;99.90;;;;;;10355623;28;20100;-61
2022/01/12 06:55:11;;;;;;;9.82;4.07;;;1.40;99.90;;;;;;10340962;28;20049;-64
2022/01/12 07:00:13;;;;;;;10.65;4.47;;;1.30;99.90;;;;;;10346748;28;20050;-63
2022/01/12 07:05:15;;;;;;;10.38;4.18;;;1.20;99.90;;;;;;10343367;28;20100;-65
2022/01/12 07:10:16;;;;;;;10.82;4.40;;;1.20;99.90;;;;;;10347394;28;20072;-65
2022/01/12 07:15:18;;;;;;;10.45;4.32;;;1.30;99.90;;;;;;10337058;28;20461;-65
2022/01/12 07:20:20;;;;;;;8.93;4.15;;;1.30;99.90;;;;;;10342776;28;20078;-65
2022/01/12 07:25:22;;;;;;;12.93;4.85;;;1.30;99.90;;;;;;10345644;28;20139;-64
2022/01/12 07:30:24;;;;;;;12.95;4.85;;;1.30;99.90;;;;;;10340228;28;20111;-65
2022/01/12 07:35:26;;;;;;;12.38;4.78;;;1.20;99.90;;;;;;10341162;28;20141;-64
2022/01/12 07:40:29;;;;;;;12.55;5.88;;;1.20;99.90;;;;;;10343479;28;20069;-64
2022/01/12 07:45:31;;;;;;;11.75;4.03;;;1.20;99.90;;;;;;10341146;28;20084;-64
2022/01/12 07:50:33;;;;;;;11.35;3.97;;;1.10;99.90;;;;;;10335625;28;20506;-64
2022/01/12 07:55:35;;;;;;;13.70;4.93;;;1.10;99.90;;;;;;10340338;28;20074;-65
2022/01/12 08:00:36;;;;;;;14.60;4.22;;;1.00;99.90;;;;;;10337948;28;20072;-64
2022/01/12 08:05:38;;;;;;;9.95;4.75;;;1.00;99.90;;;;;;10340177;28;20443;-64
2022/01/12 08:10:40;;;;;;;12.27;5.72;;;1.00;99.90;;;;;;10343757;28;20060;-64
2022/01/12 08:15:43;;;;;;;17.38;6.57;;;1.00;99.90;;;;;;10335984;28;20038;-64
2022/01/12 08:20:44;;;;;;;28.88;9.93;;;1.00;99.90;;;;;;10344004;28;20149;-64
2022/01/12 08:25:46;;;;;;;12.88;5.43;;;1.00;99.90;;;;;;10343417;28;20069;-64
2022/01/12 08:30:48;;;;;;;11.30;4.38;;;0.90;99.90;;;;;;10339506;28;20321;-64
2022/01/12 08:35:50;;;;;;;10.73;5.13;;;1.00;99.90;;;;;;10335115;28;20136;-64
2022/01/12 08:40:57;;;;;;;11.23;4.90;;;1.10;99.90;;;;;;10338526;28;20053;-64
2022/01/12 08:45:58;;;;;;;10.30;5.00;;;1.20;99.90;;;;;;10342062;28;20440;-64
2022/01/12 08:51:02;;;;;;;10.82;5.03;;;1.40;99.90;;;;;;10339694;28;20054;-64
2022/01/12 08:56:03;;;;;;;14.50;6.65;;;1.50;99.90;;;;;;10340260;28;20061;-64
2022/01/12 09:01:05;;;;;;;16.33;6.85;;;1.70;99.90;;;;;;10338212;28;20050;-64
2022/01/12 09:06:07;;;;;;;14.60;5.93;;;1.80;99.90;;;;;;10339448;28;20064;-64
2022/01/12 09:11:12;;;;;;;12.20;7.05;;;1.90;99.90;;;;;;10345050;28;20184;-64
2022/01/12 09:16:14;;;;;;;16.10;6.53;;;2.00;99.90;;;;;;10346263;28;20089;-65
2022/01/12 09:21:16;;;;;;;14.18;5.38;;;2.00;99.90;;;;;;10345607;28;20408;-64
2022/01/12 09:26:17;;;;;;;12.90;7.03;;;1.90;99.90;;;;;;10348195;28;20100;-64
2022/01/12 09:31:19;;;;;;;11.45;5.80;;;2.00;99.90;;;;;;10350501;28;20096;-64
2022/01/12 09:36:21;;;;;;;14.25;5.65;;;2.20;99.90;;;;;;10342022;28;20042;-64
2022/01/12 09:41:25;;;;;;;15.13;4.97;;;2.50;99.90;;;;;;10348124;28;20411;-64
2022/01/12 09:46:27;;;;;;;13.75;5.13;;;2.60;99.90;;;;;;10343362;28;20077;-64
2022/01/12 09:51:29;;;;;;;11.18;5.25;;;3.00;99.90;;;;;;10348891;28;20048;-64
2022/01/12 09:56:31;;;;;;;12.30;5.38;;;3.40;99.90;;;;;;10341239;28;20120;-64
2022/01/12 10:01:40;;;;;;;10.18;5.00;;;3.60;99.90;;;;;;10347879;28;20108;-64
2022/01/12 10:06:46;;;;;;;8.77;3.88;;;3.90;99.90;;;;;;10343709;28;20048;-64
2022/01/12 10:11:56;;;;;;;9.82;4.30;;;4.20;99.90;;;;;;10342992;28;20131;-64
2022/01/12 10:16:58;;;;;;;9.48;4.10;;;4.40;99.90;;;;;;10356254;28;20097;-64
2022/01/12 10:22:03;;;;;;;13.27;7.35;;;4.60;98.10;;;;;;10345663;28;20524;-65
2022/01/12 10:27:20;;;;;;;7.28;3.78;;;4.80;98.70;;;;;;10347305;28;20107;-64
2022/01/12 10:32:21;;;;;;;7.80;3.45;;;4.70;98.00;;;;;;10345514;28;20050;-64
2022/01/12 10:37:26;;;;;;;7.25;4.32;;;4.90;99.90;;;;;;10348696;28;20081;-65
2022/01/12 10:42:29;;;;;;;9.73;3.97;;;5.10;99.90;;;;;;10343142;28;20057;-65
2022/01/12 10:47:32;;;;;;;12.93;5.88;;;5.40;99.70;;;;;;10343677;28;20046;-64
2022/01/12 10:52:38;;;;;;;7.68;4.10;;;5.60;95.20;;;;;;10344760;28;20046;-65
2022/01/12 10:57:42;;;;;;;6.22;3.33;;;5.50;92.70;;;;;;10346213;28;20062;-65
2022/01/12 11:02:49;;;;;;;8.88;3.60;;;5.40;91.00;;;;;;10334831;28;20038;-65
2022/01/12 11:07:52;;;;;;;7.82;3.78;;;5.80;92.00;;;;;;10343895;28;20377;-65
2022/01/12 11:12:54;;;;;;;8.38;4.30;;;6.10;89.80;;;;;;10339951;28;20049;-64
2022/01/12 11:17:55;;;;;;;11.20;5.28;;;6.10;88.70;;;;;;10340687;28;21162;-65
2022/01/12 11:23:04;;;;;;;7.45;3.70;;;6.10;86.80;;;;;;10345994;28;20484;-65
2022/01/12 11:28:23;;;;;;;6.00;3.85;;;5.90;88.10;;;;;;10338779;28;20050;-65
2022/01/12 11:33:35;;;;;;;7.53;3.08;;;6.00;90.40;;;;;;10338730;28;20054;-64
2022/01/12 11:38:37;;;;;;;7.25;3.67;;;5.80;92.20;;;;;;10334744;28;20117;-64
2022/01/12 11:44:04;;;;;;;7.95;3.63;;;5.70;90.00;;;;;;10340764;28;20128;-64
2022/01/12 11:49:06;;;;;;;10.57;4.20;;;5.60;89.50;;;;;;10339187;28;20049;-64
2022/01/12 11:54:14;;;;;;;9.27;3.58;;;5.60;85.70;;;;;;10342686;28;20115;-64
2022/01/12 11:59:15;;;;;;;;;;;5.60;86.10;;;;;;10340881;28;20087;-64
2022/01/12 12:04:23;;;;;;;5.82;3.13;;;5.60;83.90;;;;;;10322080;28;19921;-64
2022/01/12 12:09:38;;;;;;;5.40;2.47;;;5.80;84.90;;;;;;10342541;28;20527;-64
2022/01/12 12:14:42;;;;;;;8.48;2.85;;;5.70;82.60;;;;;;10351157;28;20077;-64
2022/01/12 12:19:45;;;;;;;6.05;3.13;;;5.70;85.30;;;;;;10344554;28;20579;-64
2022/01/12 12:24:52;;;;;;;8.68;3.17;;;5.60;85.30;;;;;;10343794;28;20045;-64
2022/01/12 12:29:54;;;;;;;6.03;3.15;;;5.60;87.20;;;;;;10335061;28;20095;-64
2022/01/12 12:35:01;;;;;;;7.85;3.42;;;5.60;86.00;;;;;;10348176;28;20097;-64
2022/01/12 12:40:23;;;;;;;7.00;3.33;;;5.50;87.30;;;;;;10340246;28;20058;-64
2022/01/12 12:45:56;;;;;;;12.52;4.65;;;5.50;89.20;;;;;;10340506;28;20475;-64
2022/01/12 12:51:03;;;;;;;9.75;3.20;;;5.60;90.00;;;;;;10338008;28;20489;-64
2022/01/12 12:56:08;;;;;;;6.40;2.97;;;5.60;87.70;;;;;;10340620;28;20565;-65
2022/01/12 13:01:12;;;;;;;11.25;3.90;;;5.50;84.90;;;;;;10338915;28;20062;-64
2022/01/12 13:06:27;;;;;;;10.25;3.55;;;5.60;87.20;;;;;;10336324;28;20056;-64
2022/01/12 13:11:30;;;;;;;6.45;3.53;;;5.80;87.10;;;;;;10341080;28;20074;-64
2022/01/12 13:16:33;;;;;;;10.40;4.07;;;6.10;87.30;;;;;;10333289;28;20131;-64
2022/01/12 13:21:41;;;;;;;11.20;4.15;;;6.30;87.00;;;;;;10336986;28;20050;-64
2022/01/12 13:26:43;;;;;;;7.80;3.30;;;6.30;82.90;;;;;;10333469;28;20066;-64
2022/01/12 13:31:44;;;;;;;7.53;3.83;;;6.50;84.20;;;;;;10337024;28;20046;-64
2022/01/12 13:36:51;;;;;;;8.80;4.07;;;6.70;83.60;;;;;;10340541;28;20050;-64
2022/01/12 13:41:59;;;;;;;14.27;4.55;;;6.60;82.60;;;;;;10337082;28;20457;-64
2022/01/12 13:47:12;;;;;;;9.80;4.73;;;6.60;81.50;;;;;;10337494;28;20053;-64
2022/01/12 13:52:14;;;;;;;7.75;4.32;;;6.60;82.30;;;;;;10336918;28;20042;-64
2022/01/12 13:57:17;;;;;;;8.57;3.58;;;6.60;82.70;;;;;;10337525;28;20496;-64
2022/01/12 14:02:26;;;;;;;8.45;4.18;;;6.50;81.60;;;;;;10342668;28;20444;-63
2022/01/12 14:07:30;;;;;;;9.40;3.70;;;6.60;83.20;;;;;;10343173;28;20064;-64
2022/01/12 14:12:32;;;;;;;9.25;4.00;;;6.70;82.80;;;;;;10342195;28;20057;-63
2022/01/12 14:17:42;;;;;;;8.48;3.78;;;6.70;83.60;;;;;;10345936;28;20564;-63
2022/01/12 14:22:46;;;;;;;7.03;3.70;;;7.00;83.30;;;;;;10342342;28;20667;-63
2022/01/12 14:27:54;;;;;;;10.70;3.50;;;6.80;80.20;;;;;;10348556;28;20049;-64
2022/01/12 14:32:56;;;;;;;8.30;3.00;;;6.90;80.20;;;;;;10342298;28;20159;-64
2022/01/12 14:37:58;;;;;;;7.75;3.20;;;6.90;80.80;;;;;;10345347;28;20046;-64
2022/01/12 14:43:07;;;;;;;6.13;3.40;;;6.90;80.00;;;;;;10349601;28;20053;-64
2022/01/12 14:48:12;;;;;;;4.85;2.65;;;6.80;80.10;;;;;;10342054;28;20131;-64
2022/01/12 14:53:13;;;;;;;9.05;2.83;;;6.60;79.90;;;;;;10340833;28;20084;-64
2022/01/12 14:58:19;;;;;;;6.88;3.10;;;6.50;80.60;;;;;;10341843;28;20046;-64
2022/01/12 15:03:22;;;;;;;7.25;3.13;;;6.40;81.70;;;;;;10359544;28;20101;-64
2022/01/12 15:08:24;;;;;;;8.38;3.75;;;6.30;82.20;;;;;;10337669;28;20054;-64
2022/01/12 15:13:38;;;;;;;7.20;3.60;;;6.20;82.50;;;;;;10338908;28;20108;-64
2022/01/12 15:18:40;;;;;;;9.68;3.80;;;6.20;83.50;;;;;;10338836;28;20042;-64
2022/01/12 15:29:58;;;;;;;10.82;4.72;;;6.00;85.10;;;;;;10334738;28;20046;-64
2022/01/12 15:35:00;;;;;;;9.98;3.80;;;6.00;85.20;;;;;;10342139;28;20057;-64
2022/01/12 15:40:05;;;;;;;12.45;3.50;;;6.00;84.90;;;;;;10341508;28;20429;-64
2022/01/12 15:45:08;;;;;;;10.00;3.90;;;5.90;85.80;;;;;;10339334;28;20131;-64
2022/01/12 15:50:10;;;;;;;7.22;3.58;;;5.90;86.80;;;;;;10342758;28;20107;-64
2022/01/12 15:55:12;;;;;;;10.88;4.90;;;5.90;86.70;;;;;;10338822;28;20069;-63
2022/01/12 16:00:14;;;;;;;7.63;3.13;;;5.80;88.10;;;;;;10336970;28;20069;-63
2022/01/12 16:05:18;;;;;;;6.97;2.38;;;5.80;91.00;;;;;;10341314;28;20075;-64
2022/01/12 16:10:22;;;;;;;6.47;2.42;;;5.80;91.80;;;;;;10343881;28;20065;-64
2022/01/12 16:15:24;;;;;;;4.80;2.25;;;5.70;93.50;;;;;;10336104;28;20050;-61
2022/01/12 16:20:27;;;;;;;5.63;2.28;;;5.70;94.90;;;;;;10342794;28;20092;-63
2022/01/12 16:25:30;;;;;;;4.93;2.47;;;5.60;95.30;;;;;;10335453;28;20511;-62
2022/01/12 16:30:46;;;;;;;6.18;2.60;;;5.60;97.10;;;;;;10346228;28;20533;-61
2022/01/12 16:35:48;;;;;;;5.25;2.88;;;5.60;97.60;;;;;;10335956;28;20497;-61
2022/01/12 16:40:54;;;;;;;10.50;4.40;;;5.50;99.10;;;;;;10339330;28;20045;-61
2022/01/12 16:45:56;;;;;;;6.40;3.13;;;5.50;99.90;;;;;;10340223;28;20070;-61
2022/01/12 16:50:57;;;;;;;6.43;2.67;;;5.40;99.90;;;;;;10342480;28;20416;-61
2022/01/12 16:55:59;;;;;;;13.60;3.20;;;5.30;99.90;;;;;;10338433;28;20073;-62
2022/01/12 17:01:02;;;;;;;5.75;2.75;;;5.30;99.90;;;;;;10341080;28;20096;-62
2022/01/12 17:06:09;;;;;;;5.75;2.63;;;5.20;99.90;;;;;;10339313;28;20045;-62
2022/01/12 17:11:16;;;;;;;7.03;2.35;;;5.20;99.90;;;;;;10336474;28;20139;-61
2022/01/12 17:16:40;;;;;;;6.60;2.67;;;5.20;99.90;;;;;;10340523;28;20058;-63
2022/01/12 17:21:44;;;;;;;7.88;2.85;;;5.20;99.90;;;;;;10333285;28;20377;-61
2022/01/12 17:27:00;;;;;;;8.60;2.90;;;5.10;99.90;;;;;;10331412;28;20155;-61
2022/01/12 17:32:02;;;;;;;15.90;5.20;;;5.00;99.90;;;;;;10344831;28;20074;-61
2022/01/12 17:37:07;;;;;;;7.60;4.70;;;4.90;99.90;;;;;;10344943;28;20956;-61
2022/01/12 17:42:21;;;;;;;18.00;9.77;;;4.80;99.90;;;;;;10346949;28;20081;-62
2022/01/12 17:47:26;;;;;;;12.75;7.15;;;4.70;99.90;;;;;;10341384;28;20069;-63
2022/01/12 17:52:29;;;;;;;11.88;5.47;;;4.60;99.90;;;;;;10343802;28;20060;-61
2022/01/12 17:57:31;;;;;;;9.27;5.40;;;4.40;99.90;;;;;;10345691;28;20105;-61
2022/01/12 18:02:33;;;;;;;13.18;5.43;;;4.30;99.90;;;;;;10344867;28;20421;-61
2022/01/12 18:07:35;;;;;;;12.38;6.22;;;4.10;99.90;;;;;;10350105;28;20103;-62
2022/01/12 18:12:38;;;;;;;8.52;4.22;;;3.90;99.90;;;;;;10344162;28;20065;-62
2022/01/12 18:17:41;;;;;;;11.25;3.70;;;3.70;99.90;;;;;;10346886;28;20492;-61
2022/01/12 18:22:43;;;;;;;8.98;4.22;;;3.50;99.90;;;;;;10346070;28;20050;-61
2022/01/12 18:27:45;;;;;;;10.95;3.33;;;3.40;99.90;;;;;;10344026;28;20205;-61
2022/01/12 18:32:47;;;;;;;8.65;3.72;;;3.20;99.90;;;;;;10343066;28;20377;-62
2022/01/12 18:37:51;;;;;;;11.07;2.95;;;3.10;99.90;;;;;;10347519;28;20046;-62
2022/01/12 18:42:53;;;;;;;10.80;3.42;;;2.90;99.90;;;;;;10342537;28;20081;-62
2022/01/12 18:47:54;;;;;;;9.85;4.10;;;2.80;99.90;;;;;;10349391;28;20108;-62
2022/01/12 18:52:56;;;;;;;13.13;4.63;;;2.70;99.90;;;;;;10342598;28;20056;-61
2022/01/12 18:57:58;;;;;;;18.85;5.38;;;2.60;99.90;;;;;;10348382;28;20132;-61
2022/01/12 19:03:00;;;;;;;11.20;5.55;;;2.50;99.90;;;;;;10344012;28;20050;-61
2022/01/12 19:08:02;;;;;;;12.73;5.32;;;2.40;99.90;;;;;;10348616;28;20054;-61
2022/01/12 19:13:04;;;;;;;13.15;5.15;;;2.40;99.90;;;;;;10338544;28;20160;-61
2022/01/12 19:18:05;;;;;;;14.70;5.50;;;2.30;99.90;;;;;;10344496;28;20127;-62
2022/01/12 19:23:07;;;;;;;10.55;4.47;;;2.20;99.90;;;;;;10345957;28;20385;-61
2022/01/12 19:28:09;;;;;;;9.02;3.67;;;2.10;99.90;;;;;;10338666;28;20058;-61
2022/01/12 19:33:11;;;;;;;14.95;4.75;;;2.00;99.90;;;;;;10340634;28;20438;-63
2022/01/12 19:38:14;;;;;;;8.80;4.45;;;2.00;99.90;;;;;;10329514;28;20447;-60
2022/01/12 19:43:16;;;;;;;10.65;4.75;;;1.90;99.90;;;;;;10340080;28;20085;-61
2022/01/12 19:48:18;;;;;;;12.68;5.22;;;1.80;99.90;;;;;;10336887;28;20125;-62
2022/01/12 19:53:48;;;;;;;11.10;5.38;;;1.80;99.90;;;;;;10340232;28;20053;-61
2022/01/12 19:59:03;;;;;;;14.80;6.13;;;1.70;99.90;;;;;;10342415;28;20049;-62
2022/01/12 20:04:10;;;;;;;18.15;6.97;;;1.60;99.90;;;;;;10341831;28;20080;-62
2022/01/12 20:09:18;;;;;;;19.63;7.43;;;1.60;99.90;;;;;;10340727;28;20050;-62
2022/01/12 20:14:20;;;;;;;;;;;1.40;99.90;;;;;;10349771;28;20131;-62
2022/01/12 20:24:46;;;;;;;21.83;8.85;;;1.30;99.90;;;;;;10343376;28;20057;-62
2022/01/12 20:29:54;;;;;;;15.75;7.10;;;1.20;99.90;;;;;;10343071;28;20096;-62
2022/01/12 20:35:02;;;;;;;22.60;8.88;;;1.20;99.90;;;;;;10344639;28;20050;-62
2022/01/12 20:40:07;;;;;;;17.90;8.25;;;1.20;99.90;;;;;;10347506;28;20053;-61
2022/01/12 20:45:13;;;;;;;27.13;10.88;;;1.20;99.90;;;;;;10338360;28;20054;-62
2022/01/12 20:50:14;;;;;;;25.27;9.35;;;1.20;99.90;;;;;;10347114;28;20053;-62
2022/01/12 20:55:16;;;;;;;23.10;8.45;;;1.20;99.90;;;;;;10344791;28;20064;-61
2022/01/12 21:00:18;;;;;;;24.23;8.38;;;1.10;99.90;;;;;;10346159;28;20046;-62
2022/01/12 21:05:19;;;;;;;20.50;8.05;;;1.10;99.90;;;;;;10348434;28;20050;-62
2022/01/12 21:10:21;;;;;;;20.70;8.23;;;1.10;99.90;;;;;;10358175;28;20104;-61
2022/01/12 21:15:23;;;;;;;21.92;7.72;;;1.00;99.90;;;;;;10354401;28;20108;-61
2022/01/12 21:20:25;;;;;;;17.98;6.90;;;1.00;99.90;;;;;;10356220;28;20057;-61
2022/01/12 21:25:28;;;;;;;16.30;8.48;;;1.10;99.90;;;;;;10355223;28;20049;-62
2022/01/12 21:30:31;;;;;;;19.90;8.18;;;1.10;99.90;;;;;;10354806;28;20050;-62
2022/01/12 21:35:35;;;;;;;21.20;7.43;;;1.10;99.90;;;;;;10351443;28;20112;-62
2022/01/12 21:40:43;;;;;;;19.13;7.72;;;1.20;99.90;;;;;;10351191;28;20081;-62
2022/01/12 21:45:49;;;;;;;21.92;7.55;;;1.30;99.90;;;;;;10349881;28;20049;-62
2022/01/12 21:50:51;;;;;;;17.13;6.60;;;1.30;99.90;;;;;;10352027;28;20046;-63
2022/01/12 21:55:53;;;;;;;15.65;7.10;;;1.40;99.90;;;;;;10348678;28;20049;-62
2022/01/12 22:00:57;;;;;;;17.65;6.43;;;1.40;99.90;;;;;;10339348;28;20593;-63
2022/01/12 22:05:59;;;;;;;26.00;9.40;;;1.50;99.90;;;;;;10349039;28;20078;-62
2022/01/12 22:11:03;;;;;;;20.13;7.40;;;1.60;99.90;;;;;;10344591;28;20053;-61
2022/01/12 22:16:06;;;;;;;18.85;7.30;;;1.70;99.90;;;;;;10356536;28;20053;-63
2022/01/12 22:21:09;;;;;;;25.30;9.38;;;1.80;99.90;;;;;;10350870;28;20138;-62
2022/01/12 22:26:11;;;;;;;15.25;7.38;;;1.90;99.90;;;;;;10351390;28;20046;-63
2022/01/12 22:31:13;;;;;;;19.27;6.53;;;2.00;99.90;;;;;;10348332;28;20074;-62
2022/01/12 22:36:14;;;;;;;17.67;7.25;;;2.10;99.90;;;;;;10343462;28;20049;-62
2022/01/12 22:41:16;;;;;;;13.45;5.28;;;2.20;99.90;;;;;;10342534;28;20054;-60
2022/01/12 22:46:18;;;;;;;16.60;5.90;;;2.20;99.90;;;;;;10357438;28;20077;-61
2022/01/12 22:51:20;;;;;;;14.57;5.45;;;2.20;99.90;;;;;;10342877;28;20049;-61
2022/01/12 22:56:24;;;;;;;12.10;4.22;;;2.20;99.90;;;;;;10345647;28;20053;-61
2022/01/12 23:01:26;;;;;;;18.05;5.60;;;2.20;99.90;;;;;;10341209;28;20054;-61
2022/01/12 23:06:28;;;;;;;14.20;4.93;;;2.20;99.90;;;;;;10342796;28;20050;-61
2022/01/12 23:11:30;;;;;;;13.38;4.70;;;2.20;99.90;;;;;;10344939;28;20053;-61
2022/01/12 23:16:31;;;;;;;11.35;4.72;;;2.20;99.90;;;;;;10345308;28;20152;-62
2022/01/12 23:21:33;;;;;;;14.10;4.95;;;2.10;99.90;;;;;;10338038;28;20109;-62
2022/01/12 23:26:35;;;;;;;11.23;4.72;;;2.10;99.90;;;;;;10338360;28;20050;-62
2022/01/12 23:31:37;;;;;;;11.30;4.93;;;2.10;99.90;;;;;;10343939;28;20685;-62
2022/01/12 23:57:37;;;;;;;16.80;5.68;;;1.90;99.90;;;;;;10344570;28;20382;-62
